Huvudsida
METAR-TAF:

METAR-TAF

Flygplatser :

Bangkok-Suvarnabhumis flygplats

Bangkok-Suvarnabhumi, Thailand

latitud: 13-40-52N, longitud: 100-44-50E, höjd: 2 m

Aktuellt väderrapport

Denna rapport gjordes för 53 minuter sedan, klockan 19:30 UTC
Vind 8 kt från syd
Temperatur 28°C
Fuktighet 79%
Tryck 1011 hPa
Sikt 10 km eller mer
Få moln på en höjd av 2000 ft

METAR: VTBS 221930Z 19008KT 9999 FEW020 28/24 Q1011 NOSIG

Tid: 03:23 (20:23 UTC)

Väderprognos

Denna rapport gjordes för 3 timmar och 23 minuter sedan, klockan 17:00 UTC
Prognos gäller från 22 kl. 18 UTC till 23 kl. 24 UTC
Vind 10 kt från syd/sydväst
Sikt 10 km eller mer
Få moln på en höjd av 2000 ft

TAF: VTBS 221700Z 2218/2324 20010KT 9999 FEW020

Aktuella väderrapporter och prognoser från 4000 flygplatser (METAR- och TAF-rapporter).

De tillgängliga stationerna syns som gula och röda prickar på kartan.

För musen över prickarna för att se namnen på stationerna.

Klicka sedan för att få väderrapporter och prognoser.

För att ändra kartan: Klicka på de gröna knapparna med ett svart kors på för att zooma in; den gröna knappen med ett streck på för att zooma ut; eller på de gröna pilarna för angränsande kartor.


METAR-TAF: